createdAt,value
2019-04-26T00:02:23.706Z,11.30
2019-04-26T00:04:54.433Z,10.80
2019-04-26T00:07:24.867Z,10.40
2019-04-26T00:09:56.745Z,13.53
2019-04-26T00:12:28.500Z,12.37
2019-04-26T00:15:06.585Z,10.60
2019-04-26T00:17:38.602Z,11.40
2019-04-26T00:20:09.087Z,13.73
2019-04-26T00:22:39.371Z,12.10
2019-04-26T00:25:09.975Z,14.47
2019-04-26T00:27:43.057Z,15.13
2019-04-26T00:30:14.856Z,13.17
2019-04-26T00:32:44.950Z,14.80
2019-04-26T00:35:15.659Z,14.10
2019-04-26T00:37:45.984Z,12.90
2019-04-26T00:40:16.283Z,13.93
2019-04-26T00:42:47.057Z,14.33
2019-04-26T00:45:18.697Z,15.30
2019-04-26T00:47:50.432Z,14.00
2019-04-26T00:50:21.297Z,19.30
2019-04-26T00:52:52.804Z,16.50
2019-04-26T00:55:23.954Z,16.03
2019-04-26T00:57:54.025Z,15.57
2019-04-26T01:00:24.662Z,15.93
2019-04-26T01:02:56.347Z,18.53
2019-04-26T01:05:27.046Z,16.93
2019-04-26T01:07:57.877Z,16.23
2019-04-26T01:10:30.583Z,16.67
2019-04-26T01:13:00.794Z,16.50
2019-04-26T01:15:30.917Z,16.73
2019-04-26T01:18:01.160Z,18.03
2019-04-26T01:20:33.317Z,17.03
2019-04-26T01:23:06.310Z,16.47
2019-04-26T01:25:47.921Z,18.73
2019-04-26T01:28:29.957Z,15.63
2019-04-26T01:31:03.761Z,19.43
2019-04-26T01:33:36.079Z,17.53
2019-04-26T01:36:12.837Z,21.10
2019-04-26T01:38:38.766Z,24.20
2019-04-26T01:41:12.940Z,23.37
2019-04-26T01:43:46.215Z,20.13
2019-04-26T01:46:26.828Z,20.43
2019-04-26T01:49:06.073Z,21.63
2019-04-26T01:51:51.424Z,19.70
2019-04-26T01:54:25.693Z,22.50
2019-04-26T01:56:58.852Z,21.73
2019-04-26T01:59:29.511Z,21.20
2019-04-26T02:02:16.584Z,23.13
2019-04-26T02:04:48.614Z,23.63
2019-04-26T02:07:20.484Z,21.20
2019-04-26T02:09:50.538Z,22.17
2019-04-26T02:12:20.763Z,20.70
2019-04-26T02:14:50.976Z,19.53
2019-04-26T02:17:21.148Z,19.43
2019-04-26T02:19:51.323Z,21.30
2019-04-26T02:22:24.398Z,18.67
2019-04-26T02:24:55.474Z,19.67
2019-04-26T02:27:28.239Z,17.53
2019-04-26T02:30:00.024Z,19.40
2019-04-26T02:32:31.387Z,19.47
2019-04-26T02:35:03.544Z,23.80
2019-04-26T02:37:34.786Z,19.20
2019-04-26T02:40:08.787Z,20.30
2019-04-26T02:42:41.956Z,19.73
2019-04-26T02:45:24.222Z,19.93
2019-04-26T02:48:14.070Z,23.10
2019-04-26T02:50:57.656Z,20.17
2019-04-26T02:53:55.337Z,22.40
2019-04-26T02:56:32.233Z,23.93
2019-04-26T02:59:24.474Z,27.33
2019-04-26T03:01:57.822Z,21.43
2019-04-26T03:04:31.011Z,20.33
2019-04-26T03:07:05.245Z,24.67
2019-04-26T03:09:38.911Z,22.67
2019-04-26T03:12:17.738Z,24.67
2019-04-26T03:14:52.510Z,27.80
2019-04-26T03:17:30.744Z,22.70
2019-04-26T03:20:18.635Z,24.30
2019-04-26T03:23:00.918Z,27.33
2019-04-26T03:25:57.956Z,23.97
2019-04-26T03:28:42.047Z,21.00
2019-04-26T03:31:36.248Z,27.57
2019-04-26T03:34:15.849Z,22.07
2019-04-26T03:37:20.663Z,27.40
2019-04-26T03:40:01.047Z,18.63
2019-04-26T03:42:44.114Z,22.47
2019-04-26T03:45:40.415Z,19.40
2019-04-26T03:48:18.939Z,22.80
2019-04-26T03:50:52.396Z,25.70
2019-04-26T03:53:25.448Z,21.57
2019-04-26T03:56:10.819Z,25.70
2019-04-26T03:59:00.923Z,26.43
2019-04-26T04:01:37.379Z,23.17
2019-04-26T04:04:13.508Z,24.73
2019-04-26T04:06:58.120Z,25.97
2019-04-26T04:09:18.105Z,24.53
2019-04-26T04:12:09.543Z,21.80
2019-04-26T04:14:48.862Z,25.00
2019-04-26T04:17:27.057Z,23.87
2019-04-26T04:20:14.032Z,23.50
2019-04-26T04:22:50.575Z,22.30
2019-04-26T04:25:33.196Z,23.07
2019-04-26T04:28:26.192Z,22.67
2019-04-26T04:30:59.576Z,24.50
2019-04-26T04:33:43.728Z,24.57
2019-04-26T04:36:16.512Z,26.67
2019-04-26T04:38:49.654Z,23.83
2019-04-26T04:41:41.227Z,23.53
2019-04-26T04:44:35.826Z,22.90
2019-04-26T04:47:25.333Z,24.50
2019-04-26T04:50:14.651Z,32.77
2019-04-26T04:52:54.975Z,26.70
2019-04-26T04:55:30.553Z,27.37
2019-04-26T04:58:12.273Z,27.13
2019-04-26T05:01:02.378Z,30.67
2019-04-26T05:04:00.387Z,26.90
2019-04-26T05:07:03.974Z,29.70
2019-04-26T05:09:45.845Z,26.80
2019-04-26T05:12:31.019Z,26.20
2019-04-26T05:15:36.122Z,26.93
2019-04-26T05:18:15.003Z,26.27
2019-04-26T05:21:00.314Z,25.23
2019-04-26T05:23:53.152Z,32.30
2019-04-26T05:26:42.831Z,27.27
2019-04-26T05:29:35.270Z,27.33
2019-04-26T05:32:26.966Z,31.43
2019-04-26T05:35:11.358Z,29.47
2019-04-26T05:38:18.402Z,27.23
2019-04-26T05:41:02.950Z,29.33
2019-04-26T05:43:54.106Z,34.17
2019-04-26T05:46:46.832Z,32.80
2019-04-26T05:49:51.798Z,28.37
2019-04-26T05:52:32.789Z,27.67
2019-04-26T05:55:19.497Z,28.97
2019-04-26T05:58:13.063Z,28.17
2019-04-26T06:01:31.042Z,29.13
2019-04-26T06:04:28.593Z,28.70
2019-04-26T06:07:33.909Z,27.83
2019-04-26T06:10:31.671Z,27.50
2019-04-26T06:13:21.157Z,27.67
2019-04-26T06:16:07.777Z,27.13
2019-04-26T06:19:02.113Z,25.47
2019-04-26T06:21:47.271Z,26.70
2019-04-26T06:24:38.871Z,31.63
2019-04-26T06:27:34.684Z,28.03
2019-04-26T06:30:07.703Z,26.27
2019-04-26T06:33:06.464Z,34.63
2019-04-26T06:35:41.090Z,25.40
2019-04-26T06:38:43.666Z,24.87
2019-04-26T06:41:23.461Z,23.13
2019-04-26T06:44:09.890Z,27.77
2019-04-26T06:46:56.293Z,28.07
2019-04-26T06:49:31.223Z,24.53
2019-04-26T06:52:13.239Z,23.23
2019-04-26T06:55:12.497Z,23.77
2019-04-26T06:58:09.524Z,24.20
2019-04-26T07:01:01.916Z,26.30
2019-04-26T07:03:47.033Z,27.40
2019-04-26T07:06:20.563Z,22.67
2019-04-26T07:08:57.648Z,23.77
2019-04-26T07:11:56.476Z,23.73
2019-04-26T07:14:54.647Z,24.33
2019-04-26T07:17:53.535Z,26.23
2019-04-26T07:20:26.843Z,27.87
2019-04-26T07:23:39.325Z,27.13
2019-04-26T07:26:47.704Z,29.73
2019-04-26T07:29:40.225Z,24.10
2019-04-26T07:32:16.376Z,25.77
2019-04-26T07:35:21.206Z,26.67
2019-04-26T07:38:29.086Z,38.03
2019-04-26T07:41:12.209Z,28.20
2019-04-26T07:44:15.581Z,29.67
2019-04-26T07:47:06.519Z,33.67
2019-04-26T07:49:56.440Z,35.20
2019-04-26T07:52:56.991Z,32.07
2019-04-26T07:55:36.306Z,34.67
2019-04-26T07:58:43.009Z,32.20
2019-04-26T08:01:20.775Z,33.40
2019-04-26T08:03:55.621Z,31.83
2019-04-26T08:06:31.734Z,31.57
2019-04-26T08:09:25.983Z,30.60
2019-04-26T08:11:54.450Z,31.93
2019-04-26T08:14:27.531Z,34.20
2019-04-26T08:17:14.845Z,29.40
2019-04-26T08:20:11.482Z,34.00
2019-04-26T08:22:45.762Z,28.30
2019-04-26T08:25:18.675Z,32.07
2019-04-26T08:27:51.000Z,28.00
2019-04-26T08:30:22.861Z,30.60
2019-04-26T08:33:02.122Z,29.83
2019-04-26T08:35:35.938Z,30.83
2019-04-26T08:38:16.192Z,31.63
2019-04-26T08:40:41.412Z,30.13
2019-04-26T08:43:30.792Z,30.20
2019-04-26T08:46:12.974Z,33.50
2019-04-26T08:48:49.998Z,32.53
2019-04-26T08:51:22.044Z,30.90
2019-04-26T08:53:55.501Z,30.10
2019-04-26T08:56:37.604Z,31.40
2019-04-26T08:59:25.503Z,31.80
2019-04-26T09:02:07.010Z,29.80
2019-04-26T09:04:48.174Z,28.93
2019-04-26T09:07:22.726Z,30.07
2019-04-26T09:09:57.316Z,34.60
2019-04-26T09:12:29.859Z,29.03
2019-04-26T09:15:03.062Z,29.20
2019-04-26T09:17:33.802Z,29.60
2019-04-26T09:20:07.880Z,27.50
2019-04-26T09:22:38.894Z,29.33
2019-04-26T09:25:13.819Z,28.27
2019-04-26T09:27:51.735Z,29.13
2019-04-26T09:30:42.286Z,28.07
2019-04-26T09:33:45.815Z,29.10
2019-04-26T09:36:18.060Z,27.60
2019-04-26T09:38:47.536Z,28.83
2019-04-26T09:41:17.645Z,31.77
2019-04-26T09:43:58.580Z,31.33
2019-04-26T09:46:36.890Z,34.77
2019-04-26T09:49:08.647Z,31.93
2019-04-26T09:51:40.427Z,31.63
2019-04-26T09:54:10.562Z,31.67
2019-04-26T09:56:40.927Z,32.83
2019-04-26T09:59:11.121Z,35.13
2019-04-26T10:01:41.360Z,32.60
2019-04-26T10:04:11.507Z,35.73
2019-04-26T10:06:41.614Z,34.50
2019-04-26T10:09:17.181Z,35.30
2019-04-26T10:11:52.025Z,35.37
2019-04-26T10:14:39.139Z,32.17
2019-04-26T10:17:15.783Z,34.33
2019-04-26T10:19:50.294Z,33.77
2019-04-26T10:22:21.267Z,35.30
2019-04-26T10:24:53.344Z,36.10
2019-04-26T10:27:23.852Z,29.70
2019-04-26T10:29:55.734Z,29.23
2019-04-26T10:32:27.698Z,28.10
2019-04-26T10:34:58.083Z,26.33
2019-04-26T10:37:38.889Z,26.33
2019-04-26T10:40:00.014Z,25.43
2019-04-26T10:42:30.630Z,25.43
2019-04-26T10:45:02.506Z,25.93
2019-04-26T10:47:34.271Z,30.10
2019-04-26T10:50:04.865Z,23.17
2019-04-26T10:52:36.938Z,25.10
2019-04-26T10:55:12.174Z,25.27
2019-04-26T10:57:44.134Z,24.53
2019-04-26T11:00:17.985Z,22.33
2019-04-26T11:02:51.772Z,25.93
2019-04-26T11:05:21.881Z,23.20
2019-04-26T11:07:53.423Z,25.77
2019-04-26T11:10:24.505Z,24.03
2019-04-26T11:12:54.926Z,20.30
2019-04-26T11:15:25.254Z,21.30
2019-04-26T11:17:55.569Z,21.97
2019-04-26T11:20:25.807Z,24.07
2019-04-26T11:22:55.803Z,23.27
2019-04-26T11:25:28.288Z,22.43
2019-04-26T11:27:59.054Z,22.17
2019-04-26T11:30:29.229Z,21.07
2019-04-26T11:32:59.469Z,22.27
2019-04-26T11:35:33.268Z,18.80
2019-04-26T11:38:22.011Z,23.23
2019-04-26T11:41:05.116Z,24.83
2019-04-26T11:43:24.111Z,19.53
2019-04-26T11:46:03.769Z,15.20
2019-04-26T11:48:29.222Z,11.43
2019-04-26T11:50:57.755Z,15.63
2019-04-26T11:53:27.888Z,13.57
2019-04-26T11:56:00.241Z,17.23
2019-04-26T11:58:29.734Z,14.87
2019-04-26T12:01:01.431Z,14.37
2019-04-26T12:03:31.453Z,11.27
2019-04-26T12:06:03.304Z,12.47
2019-04-26T12:08:49.977Z,11.67
2019-04-26T12:11:26.141Z,13.57
2019-04-26T12:13:55.351Z,12.83
2019-04-26T12:16:24.974Z,10.67
2019-04-26T12:18:55.816Z,14.27
2019-04-26T12:21:26.150Z,11.97
2019-04-26T12:23:56.420Z,11.67
2019-04-26T12:26:26.799Z,16.07
2019-04-26T12:28:56.782Z,14.03
2019-04-26T12:31:27.369Z,12.87
2019-04-26T12:33:57.905Z,16.07
2019-04-26T12:36:28.347Z,10.87
2019-04-26T12:39:02.121Z,11.60
2019-04-26T12:41:39.763Z,11.93
2019-04-26T12:44:03.353Z,11.53
2019-04-26T12:46:35.214Z,12.17
2019-04-26T12:49:05.290Z,12.17
2019-04-26T12:51:38.276Z,13.83
2019-04-26T12:54:09.800Z,10.53
2019-04-26T12:56:39.648Z,10.90
2019-04-26T12:59:09.955Z,9.20
2019-04-26T13:01:42.588Z,8.87
2019-04-26T13:04:11.854Z,10.30
2019-04-26T13:06:43.754Z,7.20
2019-04-26T13:09:17.469Z,6.43
2019-04-26T13:12:01.459Z,8.03
2019-04-26T13:14:48.656Z,10.93
2019-04-26T13:17:31.313Z,7.77
2019-04-26T13:20:00.959Z,6.93
2019-04-26T13:22:32.103Z,8.10
2019-04-26T13:25:02.534Z,8.07
2019-04-26T13:27:32.493Z,7.27
2019-04-26T13:30:02.906Z,6.33
2019-04-26T13:32:34.152Z,9.57
2019-04-26T13:35:07.178Z,5.83
2019-04-26T13:37:37.041Z,7.03
2019-04-26T13:40:07.998Z,7.63
2019-04-26T13:42:37.986Z,6.30
2019-04-26T13:45:09.984Z,4.67
2019-04-26T13:47:41.813Z,4.73
2019-04-26T13:50:13.669Z,4.73
2019-04-26T13:52:44.164Z,5.27
2019-04-26T13:55:14.509Z,5.20
2019-04-26T13:57:45.992Z,5.90
2019-04-26T14:00:17.999Z,4.47
2019-04-26T14:02:47.895Z,5.53
2019-04-26T14:05:17.913Z,5.50
2019-04-26T14:07:48.160Z,4.07
2019-04-26T14:10:18.823Z,6.37
2019-04-26T14:12:49.990Z,4.43
2019-04-26T14:15:20.870Z,9.20
2019-04-26T14:17:50.972Z,5.03
2019-04-26T14:20:24.611Z,6.17
2019-04-26T14:23:15.261Z,5.30
2019-04-26T14:25:55.558Z,4.37
2019-04-26T14:28:25.891Z,4.73
2019-04-26T14:30:56.097Z,6.07
2019-04-26T14:33:27.018Z,4.40
2019-04-26T14:35:58.171Z,5.57
2019-04-26T14:38:39.502Z,6.90
2019-04-26T14:41:04.060Z,5.17
2019-04-26T14:43:40.396Z,7.93
2019-04-26T14:46:05.291Z,5.10
2019-04-26T14:48:36.505Z,4.10
2019-04-26T14:51:08.054Z,3.70
2019-04-26T14:53:38.962Z,6.00
2019-04-26T14:56:24.647Z,4.43
2019-04-26T14:58:56.483Z,5.30
2019-04-26T15:01:35.239Z,7.60
2019-04-26T15:04:28.087Z,4.87
2019-04-26T15:06:58.056Z,4.07
2019-04-26T15:09:33.116Z,5.43
2019-04-26T15:12:02.998Z,8.07
2019-04-26T15:14:33.245Z,6.67
2019-04-26T15:17:03.432Z,4.87
2019-04-26T15:19:35.143Z,5.60
2019-04-26T15:22:10.423Z,6.93
2019-04-26T15:24:38.597Z,6.83
2019-04-26T15:27:08.839Z,7.43
2019-04-26T15:29:38.905Z,7.77
2019-04-26T15:32:09.024Z,8.27
2019-04-26T15:34:39.158Z,10.40
2019-04-26T15:37:09.203Z,8.07
2019-04-26T15:39:59.307Z,7.67
2019-04-26T15:42:58.731Z,8.23
2019-04-26T15:48:50.260Z,6.40
2019-04-26T15:51:20.231Z,7.33
2019-04-26T15:53:53.369Z,8.13
2019-04-26T15:56:23.555Z,7.57
2019-04-26T15:59:12.941Z,8.03
2019-04-26T16:01:47.903Z,7.20
2019-04-26T16:04:17.258Z,10.40
2019-04-26T16:06:47.662Z,9.40
2019-04-26T16:09:20.702Z,11.23
2019-04-26T16:11:53.099Z,9.27
2019-04-26T16:14:30.988Z,8.57
2019-04-26T16:16:58.229Z,10.23
2019-04-26T16:19:29.250Z,8.80
2019-04-26T16:21:59.843Z,10.63
2019-04-26T16:24:30.307Z,10.70
2019-04-26T16:27:00.703Z,13.00
2019-04-26T16:29:50.895Z,9.47
2019-04-26T16:32:43.250Z,10.53
2019-04-26T16:35:14.101Z,14.57
2019-04-26T16:37:44.658Z,12.13
2019-04-26T16:40:15.124Z,12.50
2019-04-26T16:42:45.543Z,15.03
2019-04-26T16:45:16.079Z,13.67
2019-04-26T16:47:48.749Z,15.37
2019-04-26T16:50:24.098Z,16.90
2019-04-26T16:52:53.153Z,15.60
2019-04-26T16:55:24.743Z,17.60
2019-04-26T16:57:58.191Z,15.17
2019-04-26T17:00:47.188Z,16.77
2019-04-26T17:03:02.552Z,16.17
2019-04-26T17:05:45.404Z,16.50
2019-04-26T17:08:05.048Z,16.23
2019-04-26T17:10:33.599Z,15.63
2019-04-26T17:13:03.749Z,15.20
2019-04-26T17:15:34.534Z,14.60
2019-04-26T17:18:05.349Z,15.03
2019-04-26T17:20:35.588Z,13.97
2019-04-26T17:23:07.322Z,16.17
2019-04-26T17:25:59.140Z,16.77
2019-04-26T17:28:27.596Z,17.10
2019-04-26T17:30:58.449Z,17.27
2019-04-26T17:33:29.502Z,16.17
2019-04-26T17:35:59.554Z,16.30
2019-04-26T17:38:31.227Z,17.33
2019-04-26T17:41:01.813Z,18.17
2019-04-26T17:43:32.063Z,15.73
2019-04-26T17:46:02.169Z,15.17
2019-04-26T17:48:33.618Z,12.53
2019-04-26T17:51:03.929Z,12.47
2019-04-26T17:53:34.245Z,11.53
2019-04-26T17:56:04.560Z,13.70
2019-04-26T17:58:49.129Z,11.90
2019-04-26T18:01:06.557Z,11.27
2019-04-26T18:03:36.941Z,13.00
2019-04-26T18:06:09.606Z,11.50
2019-04-26T18:08:47.580Z,12.37
2019-04-26T18:11:18.890Z,14.00
2019-04-26T18:13:42.766Z,13.10
2019-04-26T18:16:13.755Z,11.50
2019-04-26T18:19:03.272Z,15.83
2019-04-26T18:21:44.721Z,14.50
2019-04-26T18:24:16.379Z,13.93
2019-04-26T18:26:46.726Z,11.77
2019-04-26T18:29:16.933Z,11.10
2019-04-26T18:31:47.288Z,12.53
2019-04-26T18:34:17.794Z,13.40
2019-04-26T18:36:47.987Z,14.30
2019-04-26T18:39:21.854Z,15.13
2019-04-26T18:41:49.666Z,20.40
2019-04-26T18:44:19.598Z,19.57
2019-04-26T18:47:03.522Z,19.20
2019-04-26T18:49:33.745Z,22.07
2019-04-26T18:52:03.993Z,23.43
2019-04-26T18:54:35.557Z,19.83
2019-04-26T18:57:09.329Z,21.03
2019-04-26T18:59:37.254Z,23.57
2019-04-26T19:02:07.590Z,22.33
2019-04-26T19:04:43.253Z,25.20
2019-04-26T19:07:12.108Z,28.03
2019-04-26T19:09:56.766Z,28.80
2019-04-26T19:12:14.150Z,30.20
2019-04-26T19:14:49.616Z,29.67
2019-04-26T19:17:26.050Z,30.13
2019-04-26T19:19:58.172Z,32.60
2019-04-26T19:22:28.617Z,35.13
2019-04-26T19:24:58.702Z,37.10
2019-04-26T19:27:28.911Z,41.43
2019-04-26T19:30:04.316Z,47.33
2019-04-26T19:32:35.194Z,43.80
2019-04-26T19:35:06.979Z,46.43
2019-04-26T19:37:36.971Z,49.90
2019-04-26T19:40:09.193Z,54.03
2019-04-26T19:42:39.706Z,47.57
2019-04-26T19:45:17.171Z,53.07
2019-04-26T19:47:48.360Z,52.63
2019-04-26T19:50:21.771Z,55.87
2019-04-26T19:53:01.757Z,50.83
2019-04-26T19:55:33.679Z,53.23
2019-04-26T19:58:09.795Z,53.13
2019-04-26T20:00:43.466Z,58.03
2019-04-26T20:03:16.788Z,56.90
2019-04-26T20:05:45.666Z,60.63
2019-04-26T20:08:16.003Z,56.83
2019-04-26T20:10:46.237Z,58.33
2019-04-26T20:13:16.813Z,58.17
2019-04-26T20:15:46.972Z,56.50
2019-04-26T20:18:17.556Z,53.40
2019-04-26T20:20:48.170Z,53.93
2019-04-26T20:23:19.716Z,54.50
2019-04-26T20:25:51.406Z,58.60
2019-04-26T20:28:22.775Z,58.63
2019-04-26T20:31:08.467Z,54.40
2019-04-26T20:33:38.141Z,59.03
2019-04-26T20:36:08.376Z,61.43
2019-04-26T20:38:45.581Z,58.77
2019-04-26T20:41:13.255Z,61.73
2019-04-26T20:43:46.240Z,56.60
2019-04-26T20:46:15.564Z,65.70
2019-04-26T20:48:45.830Z,64.17
2019-04-26T20:51:18.240Z,63.83
2019-04-26T20:53:47.958Z,63.87
2019-04-26T20:56:18.725Z,62.50
2019-04-26T20:58:49.259Z,63.20
2019-04-26T21:01:19.799Z,62.90
2019-04-26T21:03:51.613Z,67.13
2019-04-26T21:06:22.325Z,69.00
2019-04-26T21:08:54.156Z,67.60
2019-04-26T21:11:24.973Z,64.43
2019-04-26T21:13:55.017Z,58.80
2019-04-26T21:16:25.450Z,61.43
2019-04-26T21:18:55.658Z,63.70
2019-04-26T21:21:25.641Z,60.97
2019-04-26T21:23:55.829Z,60.30
2019-04-26T21:26:27.485Z,64.03
2019-04-26T21:28:59.336Z,65.93
2019-04-26T21:31:40.851Z,63.63
2019-04-26T21:34:12.504Z,59.53
2019-04-26T21:36:54.631Z,59.03
2019-04-26T21:39:26.318Z,59.17
2019-04-26T21:41:58.188Z,57.67
2019-04-26T21:44:28.243Z,56.43
2019-04-26T21:46:58.979Z,62.30
2019-04-26T21:49:30.107Z,55.63
2019-04-26T21:52:00.448Z,56.73
2019-04-26T21:54:30.859Z,57.87
2019-04-26T21:57:01.305Z,53.17
2019-04-26T21:59:35.136Z,55.57
2019-04-26T22:02:03.661Z,49.40
2019-04-26T22:04:37.571Z,51.13
2019-04-26T22:07:07.687Z,50.23
2019-04-26T22:09:55.613Z,49.90
2019-04-26T22:12:27.381Z,47.57
2019-04-26T22:15:13.662Z,48.67
2019-04-26T22:17:48.292Z,51.83
2019-04-26T22:20:30.754Z,48.37
2019-04-26T22:23:05.625Z,48.20
2019-04-26T22:25:37.349Z,47.93
2019-04-26T22:28:07.620Z,45.77
2019-04-26T22:30:38.095Z,48.17
2019-04-26T22:33:09.908Z,51.07
2019-04-26T22:35:43.846Z,48.47
2019-04-26T22:38:17.533Z,45.77
2019-04-26T22:40:48.610Z,52.87
2019-04-26T22:43:31.832Z,54.57
2019-04-26T22:46:26.976Z,54.57
2019-04-26T22:49:01.052Z,57.10
2019-04-26T22:51:28.514Z,58.47
2019-04-26T22:53:57.525Z,54.77
2019-04-26T22:56:32.486Z,50.77
2019-04-26T22:59:04.826Z,52.03
2019-04-26T23:01:33.056Z,50.70
2019-04-26T23:04:04.561Z,54.80
2019-04-26T23:09:33.285Z,53.77
2019-04-26T23:12:25.111Z,51.90
2019-04-26T23:14:59.421Z,51.27
2019-04-26T23:17:32.111Z,55.97
2019-04-26T23:20:23.353Z,52.57
2019-04-26T23:22:53.111Z,48.20
2019-04-26T23:25:23.814Z,51.70
2019-04-26T23:27:55.115Z,53.03
2019-04-26T23:30:27.676Z,46.77
2019-04-26T23:32:57.791Z,46.23
2019-04-26T23:35:28.020Z,41.90
2019-04-26T23:38:00.938Z,44.90
2019-04-26T23:40:29.720Z,45.57
2019-04-26T23:42:59.791Z,41.37
2019-04-26T23:45:29.946Z,44.57
2019-04-26T23:48:00.032Z,42.67
2019-04-26T23:50:30.508Z,41.20
2019-04-26T23:53:00.831Z,40.70
2019-04-26T23:55:31.044Z,42.53
2019-04-26T23:58:06.499Z,42.00
